Portada
METAR-TAF:

METAR-TAF

Aeroports :

Almeria, Espanya

latitud: 36-51N, longitud: 002-23W, altitud: 15 m

Observació

L'informe es va fer fa 40 minuts, a les 08:00 UTC
Vent 3 kt del Sud/Sud-Oest, variant entre Sud i Oest/Sud-Oest
Temperatura 25°C
Humitat 44%
Pressió 1015 hPa
Visibilitat 10 km o més
sense núvols per sota de 1500 mi sense presència de cumulonimbus.

METAR: LEAM 230800Z 21003KT 170V250 CAVOK 25/12 Q1015

Hora: 10:40 (08:40 UTC)

Pronòstic

L'informe es va fer fa 3 hores i 40 minuts, a les 05:00 UTC
Pronòstic vàlid del 23 a les 06 UTC al 24 a les 06 UTC
Vent 4 kt del Nord/Nord-Oest
Visibilitat 10 km o més
sense núvols per sota de 1500 mi sense presència de cumulonimbus.
Evolucionant progressivament
l' 23 a les 07 UTC al 23 a les 09 UTC
Vent 10 kt del Sud/Sud-Est
Evolucionant progressivament
l' 23 a les 21 UTC al 23 a les 23 UTC
Vent 2 kt amb direcció variable

TAF: LEAM 230500Z 2306/2406 34004KT CAVOK TX28/2314Z TN21/2405Z BECMG 2307/2309 15010KT BECMG 2321/2323 VRB02KT

Observacions i pronòstics meteorològics de més de 4000 aeroports (METAR i TAF).

Les estacions disponibles són els punts grocs i vermells al mapa.

Posi el ratolí al punt desitjat per veure el nom de l'estació.

Feu clic per veure les observacions i els pronòstics meteorològics.

Per canviar el mapa: feu clic els botons verds amb una creu de color negre per apropar; al botó verd amb un guió per allunyar la imatge; o en les fletxes verdes per a mapes adjacents.


METAR-TAF: